• Join FlightAware (Why Join?)
  • Login
  • US Flag 
Rudolph Flight #1: Arrived! 
02:20PM EST


 

Airport Tracker/Info


-or-


 

Live Flight TrackerFlight Track Log ✈ LBQ652 ✈ 01-May-2013 ✈ KLUK - KPTK

Flight Track Log - Related Links

Times and Time Zones

All times are in EDT time to prevent confusion due to time zone crossing. See the LBQ652 flight status page for this flight to view local times or setup timezone preferences in your user account.

Time Position Orientation Groundspeed Altitude Reporting Facility
EDT Latitude Longitude Course Direction KTS MPH feet Rate Location/Type
01:26AM 39.1403 -84.3983 North 169 194 27,000  Level Indianapolis Center
01:27AM 39.2022 -84.3831 11° North 232 267 3,500 -10,740 Descending Indianapolis Center
01:28AM 39.2761 -84.3644 11° North 257 296 5,600 2,160 Climbing Indianapolis Center
01:29AM 39.3508 -84.3442 12° North 269 310 7,900 2,160 Climbing Indianapolis Center
01:30AM 39.4256 -84.3247 11° North 269 310 10,000 1,980 Climbing Indianapolis Center
01:31AM 39.4992 -84.3053 12° North 267 307 11,900 1,800 Climbing Indianapolis Center
01:32AM 39.5756 -84.2844 12° North 274 315 13,600 1,560 Climbing Indianapolis Center
01:34AM 39.6558 -84.2639 11° North 286 329 15,100 1,380 Climbing Indianapolis Center
01:35AM 39.7239 -84.2450 12° North 293 337 16,400 1,320 Climbing Indianapolis Center
01:36AM 39.8069 -84.2231 11° North 300 345 17,800 1,440 Climbing Indianapolis Center
01:37AM 39.8928 -84.2006 11° North 307 353 19,300 1,380 Climbing Indianapolis Center
01:38AM 39.9800 -84.1764 12° North 314 361 20,600 1,260 Climbing Indianapolis Center
01:39AM 40.0694 -84.1514 12° North 323 372 21,900 1,200 Climbing Indianapolis Center
01:40AM 40.1608 -84.1278 11° North 328 377 23,000 1,140 Climbing Indianapolis Center
01:41AM 40.2542 -84.1022 12° North 335 386 24,200 1,140 Climbing Indianapolis Center
01:42AM 40.3492 -84.0758 12° North 341 392 25,400 1,260 Climbing Indianapolis Center
01:43AM 40.4406 -84.0511 12° North 334 384 26,800 780 Climbing Indianapolis Center
01:44AM 40.5367 -84.0242 12° North 344 396 27,000 60 Climbing Indianapolis Center
01:45AM 40.6375 -83.9958 12° North 362 417 27,000  Level Indianapolis Center
01:46AM 40.7417 -83.9678 12° North 374 430 27,000  Level Indianapolis Center
01:47AM 40.8478 -83.9394 11° North 381 438 27,000  Level Indianapolis Center
01:48AM 40.9528 -83.9092 12° North 383 441 27,000  Level Indianapolis Center
01:49AM 41.0525 -83.8817 12° North 385 443 27,000 -300 Level Indianapolis Center
01:50AM 41.1589 -83.8508 12° North 389 448 26,500 -780 Descending Indianapolis Center
01:51AM 41.2686 -83.8197 12° North 398 458 25,500 -1,140 Descending Indianapolis Center
01:53AM 41.5369 -83.7458 12° North 387 445 22,600 -1,200 Descending Cleveland Center
01:54AM 41.6503 -83.7150 11° North 379 436 21,300 -1,260 Descending Cleveland Center
01:55AM 41.7553 -83.6869 11° North 366 421 20,000 -1,260 Descending Cleveland Center
01:56AM 41.8542 -83.6581 12° North 361 415 18,800 -1,320 Descending Cleveland Center
01:57AM 41.9486 -83.6319 12° North 358 412 17,400 -1,740 Descending Cleveland Center
01:58AM 42.0453 -83.6003 14° North 342 394 15,400 -2,220 Descending Cleveland Center
01:59AM 42.1378 -83.5767 11° North 322 371 12,900 -2,520 Descending Cleveland Center
02:00AM 42.2217 -83.5525 12° North 303 349 10,400 -2,520 Descending Cleveland Center
02:01AM 42.3017 -83.5283 13° North 298 343 7,900 -2,460 Descending Cleveland Center
02:02AM 42.3792 -83.5067 12° North 293 337 5,400 -2,400 Descending Cleveland Center
02:03AM 42.4589 -83.4850 11° North 293 337 3,100 -2,340 Descending Cleveland Center
02:05AM 42.5555 -83.4411 16° North  Level FlightAware Approximate
02:12AM 42.6500 -83.4167 North  Level FlightAware Approximate
02:13AM 42.6656 -83.4205 North  Level Estimated
02:14AM 42.6656 -83.4205 North  Level Estimated
02:15AM 42.6656 -83.4205 North  Level Estimated
02:16AM 42.6656 -83.4205 North  Level Estimated
02:17AM 42.6656 -83.4205 North  Level Estimated
02:18AM 42.6656 -83.4205 North  Level Estimated
02:19AM 42.6656 -83.4205 North  Level Estimated
02:20AM 42.6656 -83.4205 North  Level Estimated
02:21AM 42.6656 -83.4205 North  Level Estimated
02:22AM 42.6656 -83.4205 North  Level Estimated
02:23AM 42.6656 -83.4205 North  Level Estimated
02:24AM 42.6656 -83.4205 North  Level Estimated
02:25AM 42.6656 -83.4205 North  Level Estimated
02:26AM 42.6656 -83.4205 North  Level Estimated
02:27AM 42.6656 -83.4205 North  Level Estimated
02:28AM 42.6656 -83.4205 North  Level Estimated
02:29AM 42.6656 -83.4205 North  Level Estimated